sensor_id;sensor_type;location;lat;lon;timestamp;P1;durP1;ratioP1;P2;durP2;ratioP2
1837;SDS011;918;50.796;6.772;2023-04-30T00:00:40;52.33;;;45.87;;
1837;SDS011;918;50.796;6.772;2023-04-30T00:03:05;49.13;;;41.30;;
1837;SDS011;918;50.796;6.772;2023-04-30T00:05:31;47.27;;;40.87;;
1837;SDS011;918;50.796;6.772;2023-04-30T00:07:56;43.83;;;39.33;;
1837;SDS011;918;50.796;6.772;2023-04-30T00:10:21;43.13;;;36.87;;
1837;SDS011;918;50.796;6.772;2023-04-30T00:12:46;42.90;;;38.40;;
1837;SDS011;918;50.796;6.772;2023-04-30T00:15:11;40.40;;;36.20;;
1837;SDS011;918;50.796;6.772;2023-04-30T00:17:37;40.70;;;36.27;;
1837;SDS011;918;50.796;6.772;2023-04-30T00:20:02;38.80;;;34.77;;
1837;SDS011;918;50.796;6.772;2023-04-30T00:22:28;43.87;;;37.87;;
1837;SDS011;918;50.796;6.772;2023-04-30T00:24:53;40.50;;;36.13;;
1837;SDS011;918;50.796;6.772;2023-04-30T00:27:18;43.03;;;38.33;;
1837;SDS011;918;50.796;6.772;2023-04-30T00:29:44;41.53;;;36.77;;
1837;SDS011;918;50.796;6.772;2023-04-30T00:32:09;38.80;;;34.60;;
1837;SDS011;918;50.796;6.772;2023-04-30T00:34:34;36.70;;;32.73;;
1837;SDS011;918;50.796;6.772;2023-04-30T00:36:59;36.97;;;33.17;;
1837;SDS011;918;50.796;6.772;2023-04-30T00:39:25;38.20;;;33.90;;
1837;SDS011;918;50.796;6.772;2023-04-30T00:41:50;40.00;;;35.70;;
1837;SDS011;918;50.796;6.772;2023-04-30T00:44:15;36.30;;;32.37;;
1837;SDS011;918;50.796;6.772;2023-04-30T00:46:40;37.23;;;33.17;;
1837;SDS011;918;50.796;6.772;2023-04-30T00:49:06;35.60;;;31.83;;
1837;SDS011;918;50.796;6.772;2023-04-30T00:51:31;36.27;;;32.13;;
1837;SDS011;918;50.796;6.772;2023-04-30T00:53:58;37.07;;;32.30;;
1837;SDS011;918;50.796;6.772;2023-04-30T00:56:25;37.23;;;32.20;;
1837;SDS011;918;50.796;6.772;2023-04-30T00:58:51;36.30;;;31.07;;
1837;SDS011;918;50.796;6.772;2023-04-30T01:01:21;35.73;;;31.70;;
1837;SDS011;918;50.796;6.772;2023-04-30T01:03:48;37.53;;;33.50;;
1837;SDS011;918;50.796;6.772;2023-04-30T01:06:13;33.67;;;30.03;;
1837;SDS011;918;50.796;6.772;2023-04-30T01:08:38;32.07;;;28.80;;
1837;SDS011;918;50.796;6.772;2023-04-30T01:11:10;31.10;;;26.27;;
1837;SDS011;918;50.796;6.772;2023-04-30T01:13:44;28.37;;;25.43;;
1837;SDS011;918;50.796;6.772;2023-04-30T01:16:21;29.37;;;26.30;;
1837;SDS011;918;50.796;6.772;2023-04-30T01:18:51;30.80;;;26.80;;
1837;SDS011;918;50.796;6.772;2023-04-30T01:21:21;31.33;;;27.93;;
1837;SDS011;918;50.796;6.772;2023-04-30T01:23:50;27.43;;;24.20;;
1837;SDS011;918;50.796;6.772;2023-04-30T01:29:13;24.63;;;22.33;;
1837;SDS011;918;50.796;6.772;2023-04-30T01:31:39;24.63;;;21.80;;
1837;SDS011;918;50.796;6.772;2023-04-30T01:34:07;24.57;;;22.17;;
1837;SDS011;918;50.796;6.772;2023-04-30T01:42:05;23.80;;;21.60;;
1837;SDS011;918;50.796;6.772;2023-04-30T01:44:40;23.10;;;20.73;;
1837;SDS011;918;50.796;6.772;2023-04-30T01:47:08;22.90;;;20.70;;
1837;SDS011;918;50.796;6.772;2023-04-30T01:52:45;22.33;;;20.23;;
1837;SDS011;918;50.796;6.772;2023-04-30T01:55:22;23.57;;;21.27;;
1837;SDS011;918;50.796;6.772;2023-04-30T01:57:59;21.57;;;19.57;;
1837;SDS011;918;50.796;6.772;2023-04-30T02:00:25;19.77;;;17.87;;
1837;SDS011;918;50.796;6.772;2023-04-30T02:02:51;22.13;;;20.17;;
1837;SDS011;918;50.796;6.772;2023-04-30T02:05:16;22.77;;;20.57;;
1837;SDS011;918;50.796;6.772;2023-04-30T02:07:43;22.80;;;20.57;;
1837;SDS011;918;50.796;6.772;2023-04-30T02:10:09;19.80;;;17.90;;
1837;SDS011;918;50.796;6.772;2023-04-30T02:12:38;18.93;;;17.10;;
1837;SDS011;918;50.796;6.772;2023-04-30T02:15:04;18.73;;;17.03;;
1837;SDS011;918;50.796;6.772;2023-04-30T02:17:30;17.60;;;15.97;;
1837;SDS011;918;50.796;6.772;2023-04-30T02:19:56;20.17;;;18.43;;
1837;SDS011;918;50.796;6.772;2023-04-30T02:22:21;18.77;;;17.07;;
1837;SDS011;918;50.796;6.772;2023-04-30T02:24:47;19.13;;;17.40;;
1837;SDS011;918;50.796;6.772;2023-04-30T02:27:12;19.53;;;17.73;;
1837;SDS011;918;50.796;6.772;2023-04-30T02:29:37;20.17;;;18.37;;
1837;SDS011;918;50.796;6.772;2023-04-30T02:32:03;19.33;;;17.73;;
1837;SDS011;918;50.796;6.772;2023-04-30T02:34:28;20.13;;;18.33;;
1837;SDS011;918;50.796;6.772;2023-04-30T02:36:53;19.00;;;17.30;;
1837;SDS011;918;50.796;6.772;2023-04-30T02:39:18;19.80;;;17.97;;
1837;SDS011;918;50.796;6.772;2023-04-30T02:41:44;24.27;;;21.13;;
1837;SDS011;918;50.796;6.772;2023-04-30T02:44:10;23.20;;;20.77;;
1837;SDS011;918;50.796;6.772;2023-04-30T02:46:35;22.63;;;20.53;;
1837;SDS011;918;50.796;6.772;2023-04-30T02:49:00;22.50;;;20.50;;
1837;SDS011;918;50.796;6.772;2023-04-30T02:51:26;22.60;;;20.60;;
1837;SDS011;918;50.796;6.772;2023-04-30T02:53:52;22.63;;;20.50;;
1837;SDS011;918;50.796;6.772;2023-04-30T02:56:17;20.97;;;19.07;;
1837;SDS011;918;50.796;6.772;2023-04-30T02:58:42;22.37;;;20.20;;
1837;SDS011;918;50.796;6.772;2023-04-30T03:01:08;21.60;;;19.47;;
1837;SDS011;918;50.796;6.772;2023-04-30T03:03:33;21.10;;;19.23;;
1837;SDS011;918;50.796;6.772;2023-04-30T03:05:58;21.23;;;19.03;;
1837;SDS011;918;50.796;6.772;2023-04-30T03:08:24;20.97;;;19.07;;
1837;SDS011;918;50.796;6.772;2023-04-30T03:10:49;22.57;;;20.37;;
1837;SDS011;918;50.796;6.772;2023-04-30T03:13:15;21.47;;;19.37;;
1837;SDS011;918;50.796;6.772;2023-04-30T03:15:40;22.40;;;20.30;;
1837;SDS011;918;50.796;6.772;2023-04-30T03:18:05;21.50;;;19.33;;
1837;SDS011;918;50.796;6.772;2023-04-30T03:20:30;22.70;;;20.50;;
1837;SDS011;918;50.796;6.772;2023-04-30T03:22:56;22.30;;;20.17;;
1837;SDS011;918;50.796;6.772;2023-04-30T03:25:21;22.83;;;20.70;;
1837;SDS011;918;50.796;6.772;2023-04-30T03:27:46;24.53;;;22.13;;
1837;SDS011;918;50.796;6.772;2023-04-30T03:30:11;23.20;;;21.07;;
1837;SDS011;918;50.796;6.772;2023-04-30T03:32:37;23.17;;;20.87;;
1837;SDS011;918;50.796;6.772;2023-04-30T03:35:02;22.83;;;20.47;;
1837;SDS011;918;50.796;6.772;2023-04-30T03:37:28;23.27;;;21.00;;
1837;SDS011;918;50.796;6.772;2023-04-30T03:39:53;24.60;;;22.20;;
1837;SDS011;918;50.796;6.772;2023-04-30T03:42:18;23.50;;;21.40;;
1837;SDS011;918;50.796;6.772;2023-04-30T03:44:44;25.00;;;20.30;;
1837;SDS011;918;50.796;6.772;2023-04-30T03:47:09;26.00;;;23.23;;
1837;SDS011;918;50.796;6.772;2023-04-30T03:49:34;27.33;;;24.63;;
1837;SDS011;918;50.796;6.772;2023-04-30T03:52:00;26.20;;;23.50;;
1837;SDS011;918;50.796;6.772;2023-04-30T03:54:25;24.40;;;21.90;;
1837;SDS011;918;50.796;6.772;2023-04-30T03:56:50;27.27;;;24.63;;
1837;SDS011;918;50.796;6.772;2023-04-30T03:59:16;25.90;;;23.20;;
1837;SDS011;918;50.796;6.772;2023-04-30T04:01:41;24.60;;;22.10;;
1837;SDS011;918;50.796;6.772;2023-04-30T04:04:07;25.17;;;22.53;;
1837;SDS011;918;50.796;6.772;2023-04-30T04:06:33;25.37;;;22.87;;
1837;SDS011;918;50.796;6.772;2023-04-30T04:08:58;28.40;;;25.60;;
1837;SDS011;918;50.796;6.772;2023-04-30T04:11:23;25.23;;;22.60;;
1837;SDS011;918;50.796;6.772;2023-04-30T04:13:48;26.93;;;24.23;;
1837;SDS011;918;50.796;6.772;2023-04-30T04:16:14;27.50;;;24.53;;
1837;SDS011;918;50.796;6.772;2023-04-30T04:18:39;26.23;;;23.30;;
1837;SDS011;918;50.796;6.772;2023-04-30T04:21:05;26.20;;;23.50;;
1837;SDS011;918;50.796;6.772;2023-04-30T04:23:30;23.23;;;20.93;;
1837;SDS011;918;50.796;6.772;2023-04-30T04:25:55;24.27;;;21.87;;
1837;SDS011;918;50.796;6.772;2023-04-30T04:28:21;25.30;;;21.77;;
1837;SDS011;918;50.796;6.772;2023-04-30T04:30:46;24.37;;;21.87;;
1837;SDS011;918;50.796;6.772;2023-04-30T04:33:13;27.00;;;24.33;;
1837;SDS011;918;50.796;6.772;2023-04-30T04:35:38;25.60;;;22.97;;
1837;SDS011;918;50.796;6.772;2023-04-30T04:38:03;28.20;;;24.30;;
1837;SDS011;918;50.796;6.772;2023-04-30T04:40:29;25.60;;;22.93;;
1837;SDS011;918;50.796;6.772;2023-04-30T04:42:54;25.30;;;22.87;;
1837;SDS011;918;50.796;6.772;2023-04-30T04:45:20;29.70;;;26.70;;
1837;SDS011;918;50.796;6.772;2023-04-30T04:47:45;31.50;;;28.20;;
1837;SDS011;918;50.796;6.772;2023-04-30T04:50:11;29.63;;;26.73;;
1837;SDS011;918;50.796;6.772;2023-04-30T04:52:37;29.23;;;26.10;;
1837;SDS011;918;50.796;6.772;2023-04-30T04:55:03;27.93;;;25.23;;
1837;SDS011;918;50.796;6.772;2023-04-30T04:57:29;28.07;;;25.10;;
1837;SDS011;918;50.796;6.772;2023-04-30T04:59:54;27.77;;;24.97;;
1837;SDS011;918;50.796;6.772;2023-04-30T05:02:19;28.30;;;25.43;;
1837;SDS011;918;50.796;6.772;2023-04-30T05:04:47;28.10;;;25.07;;
1837;SDS011;918;50.796;6.772;2023-04-30T05:07:14;26.50;;;23.90;;
1837;SDS011;918;50.796;6.772;2023-04-30T05:09:39;25.30;;;22.87;;
1837;SDS011;918;50.796;6.772;2023-04-30T05:12:05;24.90;;;22.40;;
1837;SDS011;918;50.796;6.772;2023-04-30T05:14:30;25.83;;;23.07;;
1837;SDS011;918;50.796;6.772;2023-04-30T05:16:55;23.90;;;21.50;;
1837;SDS011;918;50.796;6.772;2023-04-30T05:19:20;22.23;;;20.17;;
1837;SDS011;918;50.796;6.772;2023-04-30T05:21:46;21.17;;;19.00;;
1837;SDS011;918;50.796;6.772;2023-04-30T05:24:11;21.30;;;19.33;;
1837;SDS011;918;50.796;6.772;2023-04-30T05:26:36;23.10;;;21.00;;
1837;SDS011;918;50.796;6.772;2023-04-30T05:29:01;21.50;;;19.60;;
1837;SDS011;918;50.796;6.772;2023-04-30T05:31:27;22.17;;;20.17;;
1837;SDS011;918;50.796;6.772;2023-04-30T05:33:52;20.07;;;18.27;;
1837;SDS011;918;50.796;6.772;2023-04-30T05:36:17;19.00;;;17.40;;
1837;SDS011;918;50.796;6.772;2023-04-30T05:38:42;18.20;;;16.67;;
1837;SDS011;918;50.796;6.772;2023-04-30T05:41:10;19.00;;;17.50;;
1837;SDS011;918;50.796;6.772;2023-04-30T05:43:36;19.30;;;17.73;;
1837;SDS011;918;50.796;6.772;2023-04-30T05:46:01;18.20;;;16.80;;
1837;SDS011;918;50.796;6.772;2023-04-30T05:48:27;19.33;;;17.60;;
1837;SDS011;918;50.796;6.772;2023-04-30T05:50:52;18.40;;;16.90;;
1837;SDS011;918;50.796;6.772;2023-04-30T05:53:17;19.97;;;18.40;;
1837;SDS011;918;50.796;6.772;2023-04-30T05:55:43;19.97;;;18.27;;
1837;SDS011;918;50.796;6.772;2023-04-30T05:58:08;19.57;;;17.97;;
1837;SDS011;918;50.796;6.772;2023-04-30T06:00:33;20.40;;;18.70;;
1837;SDS011;918;50.796;6.772;2023-04-30T06:02:59;19.20;;;17.60;;
1837;SDS011;918;50.796;6.772;2023-04-30T06:05:25;20.83;;;19.03;;
1837;SDS011;918;50.796;6.772;2023-04-30T06:07:50;22.00;;;20.00;;
1837;SDS011;918;50.796;6.772;2023-04-30T06:10:16;19.77;;;18.10;;
1837;SDS011;918;50.796;6.772;2023-04-30T06:12:41;19.70;;;18.10;;
1837;SDS011;918;50.796;6.772;2023-04-30T06:15:06;18.70;;;17.00;;
1837;SDS011;918;50.796;6.772;2023-04-30T06:17:33;18.67;;;17.07;;
1837;SDS011;918;50.796;6.772;2023-04-30T06:19:58;18.73;;;17.23;;
1837;SDS011;918;50.796;6.772;2023-04-30T06:22:26;17.87;;;16.60;;
1837;SDS011;918;50.796;6.772;2023-04-30T06:24:51;17.57;;;16.10;;
1837;SDS011;918;50.796;6.772;2023-04-30T06:27:17;17.30;;;15.80;;
1837;SDS011;918;50.796;6.772;2023-04-30T06:29:42;17.53;;;16.23;;
1837;SDS011;918;50.796;6.772;2023-04-30T06:32:07;18.50;;;17.00;;
1837;SDS011;918;50.796;6.772;2023-04-30T06:34:32;18.90;;;17.20;;
1837;SDS011;918;50.796;6.772;2023-04-30T06:36:58;18.33;;;17.03;;
1837;SDS011;918;50.796;6.772;2023-04-30T06:39:23;18.20;;;16.87;;
1837;SDS011;918;50.796;6.772;2023-04-30T06:41:48;19.93;;;18.40;;
1837;SDS011;918;50.796;6.772;2023-04-30T06:44:13;19.77;;;18.27;;
1837;SDS011;918;50.796;6.772;2023-04-30T06:46:39;19.57;;;18.17;;
1837;SDS011;918;50.796;6.772;2023-04-30T06:49:04;21.10;;;19.50;;
1837;SDS011;918;50.796;6.772;2023-04-30T06:51:30;21.03;;;19.47;;
1837;SDS011;918;50.796;6.772;2023-04-30T06:53:55;23.87;;;21.97;;
1837;SDS011;918;50.796;6.772;2023-04-30T06:56:20;23.83;;;21.87;;
1837;SDS011;918;50.796;6.772;2023-04-30T06:58:46;23.77;;;21.87;;
1837;SDS011;918;50.796;6.772;2023-04-30T07:01:11;25.27;;;23.00;;
1837;SDS011;918;50.796;6.772;2023-04-30T07:03:36;25.23;;;23.33;;
1837;SDS011;918;50.796;6.772;2023-04-30T07:06:01;25.40;;;23.20;;
1837;SDS011;918;50.796;6.772;2023-04-30T07:08:27;25.10;;;23.00;;
1837;SDS011;918;50.796;6.772;2023-04-30T07:10:52;25.03;;;23.03;;
1837;SDS011;918;50.796;6.772;2023-04-30T07:13:18;24.03;;;22.13;;
1837;SDS011;918;50.796;6.772;2023-04-30T07:15:43;23.10;;;21.30;;
1837;SDS011;918;50.796;6.772;2023-04-30T07:18:09;24.37;;;22.37;;
1837;SDS011;918;50.796;6.772;2023-04-30T07:20:34;23.50;;;21.70;;
1837;SDS011;918;50.796;6.772;2023-04-30T07:22:59;23.40;;;21.70;;
1837;SDS011;918;50.796;6.772;2023-04-30T07:25:24;24.20;;;22.47;;
1837;SDS011;918;50.796;6.772;2023-04-30T07:27:50;23.43;;;21.73;;
1837;SDS011;918;50.796;6.772;2023-04-30T07:30:16;24.37;;;22.50;;
1837;SDS011;918;50.796;6.772;2023-04-30T07:32:42;23.73;;;21.90;;
1837;SDS011;918;50.796;6.772;2023-04-30T07:35:07;23.73;;;21.73;;
1837;SDS011;918;50.796;6.772;2023-04-30T07:37:33;24.70;;;22.80;;
1837;SDS011;918;50.796;6.772;2023-04-30T07:39:58;24.30;;;22.33;;
1837;SDS011;918;50.796;6.772;2023-04-30T07:42:23;24.63;;;22.77;;
1837;SDS011;918;50.796;6.772;2023-04-30T07:44:49;25.47;;;23.37;;
1837;SDS011;918;50.796;6.772;2023-04-30T07:47:14;24.53;;;22.43;;
1837;SDS011;918;50.796;6.772;2023-04-30T07:49:39;23.80;;;21.90;;
1837;SDS011;918;50.796;6.772;2023-04-30T07:52:05;26.40;;;24.33;;
1837;SDS011;918;50.796;6.772;2023-04-30T07:54:32;24.77;;;22.87;;
1837;SDS011;918;50.796;6.772;2023-04-30T07:57:00;27.27;;;25.07;;
1837;SDS011;918;50.796;6.772;2023-04-30T07:59:25;25.23;;;23.13;;
1837;SDS011;918;50.796;6.772;2023-04-30T08:01:51;25.90;;;23.70;;
1837;SDS011;918;50.796;6.772;2023-04-30T08:04:16;24.63;;;22.50;;
1837;SDS011;918;50.796;6.772;2023-04-30T08:06:41;23.63;;;21.73;;
1837;SDS011;918;50.796;6.772;2023-04-30T08:09:06;25.33;;;23.23;;
1837;SDS011;918;50.796;6.772;2023-04-30T08:11:32;25.97;;;23.80;;
1837;SDS011;918;50.796;6.772;2023-04-30T08:13:57;26.23;;;24.00;;
1837;SDS011;918;50.796;6.772;2023-04-30T08:16:23;27.73;;;25.43;;
1837;SDS011;918;50.796;6.772;2023-04-30T08:18:48;24.00;;;21.90;;
1837;SDS011;918;50.796;6.772;2023-04-30T08:21:13;23.57;;;21.67;;
1837;SDS011;918;50.796;6.772;2023-04-30T08:23:39;24.17;;;22.03;;
1837;SDS011;918;50.796;6.772;2023-04-30T08:26:04;23.83;;;21.93;;
1837;SDS011;918;50.796;6.772;2023-04-30T08:28:30;22.87;;;21.07;;
1837;SDS011;918;50.796;6.772;2023-04-30T08:30:55;25.63;;;23.47;;
1837;SDS011;918;50.796;6.772;2023-04-30T08:33:20;24.67;;;22.70;;
1837;SDS011;918;50.796;6.772;2023-04-30T08:35:46;23.80;;;21.73;;
1837;SDS011;918;50.796;6.772;2023-04-30T08:38:11;24.03;;;22.00;;
1837;SDS011;918;50.796;6.772;2023-04-30T08:40:36;24.10;;;21.80;;
1837;SDS011;918;50.796;6.772;2023-04-30T08:43:05;23.00;;;21.00;;
1837;SDS011;918;50.796;6.772;2023-04-30T08:45:34;24.43;;;22.20;;
1837;SDS011;918;50.796;6.772;2023-04-30T08:48:01;21.90;;;20.03;;
1837;SDS011;918;50.796;6.772;2023-04-30T08:50:27;27.43;;;20.63;;
1837;SDS011;918;50.796;6.772;2023-04-30T08:52:52;22.73;;;20.73;;
1837;SDS011;918;50.796;6.772;2023-04-30T08:55:17;22.73;;;20.90;;
1837;SDS011;918;50.796;6.772;2023-04-30T08:57:42;23.70;;;21.53;;
1837;SDS011;918;50.796;6.772;2023-04-30T09:00:08;18.80;;;17.10;;
1837;SDS011;918;50.796;6.772;2023-04-30T09:02:33;17.20;;;15.50;;
1837;SDS011;918;50.796;6.772;2023-04-30T09:04:59;17.70;;;15.83;;
1837;SDS011;918;50.796;6.772;2023-04-30T09:07:25;16.53;;;15.03;;
1837;SDS011;918;50.796;6.772;2023-04-30T09:09:52;17.57;;;15.13;;
1837;SDS011;918;50.796;6.772;2023-04-30T09:12:18;13.93;;;12.63;;
1837;SDS011;918;50.796;6.772;2023-04-30T09:14:59;17.33;;;13.60;;
1837;SDS011;918;50.796;6.772;2023-04-30T09:17:26;14.60;;;13.30;;
1837;SDS011;918;50.796;6.772;2023-04-30T09:19:51;17.07;;;14.00;;
1837;SDS011;918;50.796;6.772;2023-04-30T09:22:18;14.23;;;13.03;;
1837;SDS011;918;50.796;6.772;2023-04-30T09:24:45;12.87;;;11.77;;
1837;SDS011;918;50.796;6.772;2023-04-30T09:27:15;10.80;;;9.90;;
1837;SDS011;918;50.796;6.772;2023-04-30T09:29:42;6.33;;;5.83;;
1837;SDS011;918;50.796;6.772;2023-04-30T09:32:07;6.03;;;5.63;;
1837;SDS011;918;50.796;6.772;2023-04-30T09:34:33;5.50;;;4.97;;
1837;SDS011;918;50.796;6.772;2023-04-30T09:37:02;3.30;;;2.70;;
1837;SDS011;918;50.796;6.772;2023-04-30T09:39:28;2.53;;;2.33;;
1837;SDS011;918;50.796;6.772;2023-04-30T09:42:05;2.90;;;2.70;;
1837;SDS011;918;50.796;6.772;2023-04-30T09:44:35;3.30;;;3.00;;
1837;SDS011;918;50.796;6.772;2023-04-30T09:47:01;2.13;;;2.00;;
1837;SDS011;918;50.796;6.772;2023-04-30T09:49:27;2.80;;;2.23;;
1837;SDS011;918;50.796;6.772;2023-04-30T09:51:56;2.23;;;1.70;;
1837;SDS011;918;50.796;6.772;2023-04-30T09:54:28;1.83;;;1.73;;
1837;SDS011;918;50.796;6.772;2023-04-30T09:56:55;1.77;;;1.60;;
1837;SDS011;918;50.796;6.772;2023-04-30T09:59:29;2.60;;;2.40;;
1837;SDS011;918;50.796;6.772;2023-04-30T10:01:59;3.10;;;2.80;;
1837;SDS011;918;50.796;6.772;2023-04-30T10:04:27;3.30;;;3.10;;
1837;SDS011;918;50.796;6.772;2023-04-30T10:06:53;3.40;;;3.20;;
1837;SDS011;918;50.796;6.772;2023-04-30T10:09:19;2.83;;;2.57;;
1837;SDS011;918;50.796;6.772;2023-04-30T10:11:44;2.87;;;2.67;;
1837;SDS011;918;50.796;6.772;2023-04-30T10:14:10;1.63;;;1.53;;
1837;SDS011;918;50.796;6.772;2023-04-30T10:16:46;2.07;;;1.97;;
1837;SDS011;918;50.796;6.772;2023-04-30T10:19:18;2.37;;;2.10;;
1837;SDS011;918;50.796;6.772;2023-04-30T10:21:45;2.93;;;2.73;;
1837;SDS011;918;50.796;6.772;2023-04-30T10:24:14;2.60;;;2.40;;
1837;SDS011;918;50.796;6.772;2023-04-30T10:26:42;2.30;;;2.07;;
1837;SDS011;918;50.796;6.772;2023-04-30T10:29:07;2.90;;;2.70;;
1837;SDS011;918;50.796;6.772;2023-04-30T10:31:33;2.93;;;2.73;;
1837;SDS011;918;50.796;6.772;2023-04-30T10:34:07;2.80;;;2.60;;
1837;SDS011;918;50.796;6.772;2023-04-30T10:36:41;1.90;;;1.80;;
1837;SDS011;918;50.796;6.772;2023-04-30T10:39:13;1.53;;;1.43;;
1837;SDS011;918;50.796;6.772;2023-04-30T10:41:45;3.30;;;3.10;;
1837;SDS011;918;50.796;6.772;2023-04-30T10:44:13;2.80;;;2.20;;
1837;SDS011;918;50.796;6.772;2023-04-30T10:46:40;3.23;;;3.03;;
1837;SDS011;918;50.796;6.772;2023-04-30T10:49:05;3.77;;;3.43;;
1837;SDS011;918;50.796;6.772;2023-04-30T10:51:47;3.30;;;3.10;;
1837;SDS011;918;50.796;6.772;2023-04-30T10:54:24;4.10;;;3.70;;
1837;SDS011;918;50.796;6.772;2023-04-30T10:56:51;4.50;;;4.20;;
1837;SDS011;918;50.796;6.772;2023-04-30T10:59:17;4.70;;;4.30;;
1837;SDS011;918;50.796;6.772;2023-04-30T11:02:00;4.47;;;4.10;;
1837;SDS011;918;50.796;6.772;2023-04-30T11:04:26;5.07;;;4.67;;
1837;SDS011;918;50.796;6.772;2023-04-30T11:09:33;4.03;;;3.73;;
1837;SDS011;918;50.796;6.772;2023-04-30T11:12:13;4.23;;;3.93;;
1837;SDS011;918;50.796;6.772;2023-04-30T11:14:43;4.77;;;4.47;;
1837;SDS011;918;50.796;6.772;2023-04-30T11:17:10;4.10;;;3.80;;
1837;SDS011;918;50.796;6.772;2023-04-30T11:19:47;3.40;;;3.20;;
1837;SDS011;918;50.796;6.772;2023-04-30T11:22:15;3.87;;;3.57;;
1837;SDS011;918;50.796;6.772;2023-04-30T11:27:23;3.70;;;3.50;;
1837;SDS011;918;50.796;6.772;2023-04-30T11:29:56;4.17;;;3.87;;
1837;SDS011;918;50.796;6.772;2023-04-30T11:32:22;3.93;;;3.67;;
1837;SDS011;918;50.796;6.772;2023-04-30T11:34:49;4.20;;;3.90;;
1837;SDS011;918;50.796;6.772;2023-04-30T11:37:18;4.33;;;3.37;;
1837;SDS011;918;50.796;6.772;2023-04-30T11:39:45;3.23;;;2.93;;
1837;SDS011;918;50.796;6.772;2023-04-30T11:42:14;3.40;;;3.20;;
1837;SDS011;918;50.796;6.772;2023-04-30T11:44:43;3.67;;;3.37;;
1837;SDS011;918;50.796;6.772;2023-04-30T11:47:09;4.47;;;4.07;;
1837;SDS011;918;50.796;6.772;2023-04-30T11:49:36;3.60;;;3.30;;
1837;SDS011;918;50.796;6.772;2023-04-30T11:52:01;3.63;;;3.30;;
1837;SDS011;918;50.796;6.772;2023-04-30T11:54:30;4.10;;;3.80;;
1837;SDS011;918;50.796;6.772;2023-04-30T11:56:56;4.60;;;3.60;;
1837;SDS011;918;50.796;6.772;2023-04-30T11:59:27;3.13;;;2.93;;
1837;SDS011;918;50.796;6.772;2023-04-30T12:01:53;2.53;;;2.40;;
1837;SDS011;918;50.796;6.772;2023-04-30T12:04:18;2.73;;;2.53;;
1837;SDS011;918;50.796;6.772;2023-04-30T12:06:43;4.90;;;3.93;;
1837;SDS011;918;50.796;6.772;2023-04-30T12:09:09;2.30;;;2.10;;
1837;SDS011;918;50.796;6.772;2023-04-30T12:11:36;2.30;;;2.20;;
1837;SDS011;918;50.796;6.772;2023-04-30T12:14:06;2.13;;;1.93;;
1837;SDS011;918;50.796;6.772;2023-04-30T12:16:52;2.67;;;2.47;;
1837;SDS011;918;50.796;6.772;2023-04-30T12:19:18;2.17;;;2.07;;
1837;SDS011;918;50.796;6.772;2023-04-30T12:21:45;2.30;;;2.20;;
1837;SDS011;918;50.796;6.772;2023-04-30T12:24:12;2.07;;;1.97;;
1837;SDS011;918;50.796;6.772;2023-04-30T12:26:43;1.93;;;1.83;;
1837;SDS011;918;50.796;6.772;2023-04-30T12:29:09;1.73;;;1.63;;
1837;SDS011;918;50.796;6.772;2023-04-30T12:31:41;1.77;;;1.67;;
1837;SDS011;918;50.796;6.772;2023-04-30T12:34:07;2.00;;;1.90;;
1837;SDS011;918;50.796;6.772;2023-04-30T12:36:34;2.30;;;2.20;;
1837;SDS011;918;50.796;6.772;2023-04-30T12:39:06;2.20;;;2.10;;
1837;SDS011;918;50.796;6.772;2023-04-30T12:41:39;1.80;;;1.70;;
1837;SDS011;918;50.796;6.772;2023-04-30T12:44:22;1.77;;;1.63;;
1837;SDS011;918;50.796;6.772;2023-04-30T12:46:49;1.80;;;1.70;;
1837;SDS011;918;50.796;6.772;2023-04-30T12:49:29;1.63;;;1.50;;
1837;SDS011;918;50.796;6.772;2023-04-30T12:51:58;1.60;;;1.50;;
1837;SDS011;918;50.796;6.772;2023-04-30T12:54:26;1.80;;;1.40;;
1837;SDS011;918;50.796;6.772;2023-04-30T12:56:59;4.30;;;1.47;;
1837;SDS011;918;50.796;6.772;2023-04-30T13:00:17;5.37;;;1.57;;
1837;SDS011;918;50.796;6.772;2023-04-30T13:02:17;4.80;;;1.40;;
1837;SDS011;918;50.796;6.772;2023-04-30T13:04:45;0.90;;;0.90;;
1837;SDS011;918;50.796;6.772;2023-04-30T13:07:10;1.70;;;1.50;;
1837;SDS011;918;50.796;6.772;2023-04-30T13:09:36;0.80;;;0.80;;
1837;SDS011;918;50.796;6.772;2023-04-30T13:12:02;14.80;;;3.50;;
1837;SDS011;918;50.796;6.772;2023-04-30T13:14:28;3.43;;;1.33;;
1837;SDS011;918;50.796;6.772;2023-04-30T13:16:54;4.47;;;1.50;;
1837;SDS011;918;50.796;6.772;2023-04-30T13:19:20;39.13;;;11.80;;
1837;SDS011;918;50.796;6.772;2023-04-30T13:21:45;0.90;;;0.90;;
1837;SDS011;918;50.796;6.772;2023-04-30T13:24:11;0.90;;;0.90;;
1837;SDS011;918;50.796;6.772;2023-04-30T13:26:36;0.90;;;0.90;;
1837;SDS011;918;50.796;6.772;2023-04-30T13:29:01;2.30;;;1.03;;
1837;SDS011;918;50.796;6.772;2023-04-30T13:31:28;0.93;;;0.90;;
1837;SDS011;918;50.796;6.772;2023-04-30T13:33:53;1.10;;;1.10;;
1837;SDS011;918;50.796;6.772;2023-04-30T13:36:19;0.90;;;0.90;;
1837;SDS011;918;50.796;6.772;2023-04-30T13:38:44;2.83;;;1.37;;
1837;SDS011;918;50.796;6.772;2023-04-30T13:41:10;0.83;;;0.83;;
1837;SDS011;918;50.796;6.772;2023-04-30T13:43:35;1.27;;;0.90;;
1837;SDS011;918;50.796;6.772;2023-04-30T13:46:02;0.90;;;0.90;;
1837;SDS011;918;50.796;6.772;2023-04-30T13:48:28;1.20;;;0.80;;
1837;SDS011;918;50.796;6.772;2023-04-30T13:50:53;0.90;;;0.90;;
1837;SDS011;918;50.796;6.772;2023-04-30T13:53:18;1.33;;;0.83;;
1837;SDS011;918;50.796;6.772;2023-04-30T13:55:44;1.00;;;1.00;;
1837;SDS011;918;50.796;6.772;2023-04-30T13:58:09;1.10;;;1.10;;
1837;SDS011;918;50.796;6.772;2023-04-30T14:00:35;0.83;;;0.83;;
1837;SDS011;918;50.796;6.772;2023-04-30T14:03:00;0.90;;;0.90;;
1837;SDS011;918;50.796;6.772;2023-04-30T14:05:25;9.07;;;2.03;;
1837;SDS011;918;50.796;6.772;2023-04-30T14:07:51;0.70;;;0.70;;
1837;SDS011;918;50.796;6.772;2023-04-30T14:10:16;0.60;;;0.60;;
1837;SDS011;918;50.796;6.772;2023-04-30T14:12:41;0.97;;;0.90;;
1837;SDS011;918;50.796;6.772;2023-04-30T14:15:07;0.90;;;0.90;;
1837;SDS011;918;50.796;6.772;2023-04-30T14:17:32;0.90;;;0.80;;
1837;SDS011;918;50.796;6.772;2023-04-30T14:19:58;0.80;;;0.80;;
1837;SDS011;918;50.796;6.772;2023-04-30T14:22:23;0.70;;;0.70;;
1837;SDS011;918;50.796;6.772;2023-04-30T14:24:50;0.70;;;0.70;;
1837;SDS011;918;50.796;6.772;2023-04-30T14:27:16;0.90;;;0.90;;
1837;SDS011;918;50.796;6.772;2023-04-30T14:29:41;1.33;;;0.70;;
1837;SDS011;918;50.796;6.772;2023-04-30T14:32:07;1.00;;;0.90;;
1837;SDS011;918;50.796;6.772;2023-04-30T14:34:32;0.80;;;0.80;;
1837;SDS011;918;50.796;6.772;2023-04-30T14:36:57;0.73;;;0.73;;
1837;SDS011;918;50.796;6.772;2023-04-30T14:39:25;0.97;;;0.87;;
1837;SDS011;918;50.796;6.772;2023-04-30T14:41:50;0.80;;;0.80;;
1837;SDS011;918;50.796;6.772;2023-04-30T14:44:16;0.83;;;0.77;;
1837;SDS011;918;50.796;6.772;2023-04-30T14:46:41;0.93;;;0.80;;
1837;SDS011;918;50.796;6.772;2023-04-30T14:49:07;1.40;;;1.03;;
1837;SDS011;918;50.796;6.772;2023-04-30T14:51:32;0.90;;;0.90;;
1837;SDS011;918;50.796;6.772;2023-04-30T14:53:57;1.17;;;1.13;;
1837;SDS011;918;50.796;6.772;2023-04-30T14:56:23;0.90;;;0.90;;
1837;SDS011;918;50.796;6.772;2023-04-30T14:58:49;0.87;;;0.87;;
1837;SDS011;918;50.796;6.772;2023-04-30T15:01:14;1.50;;;1.20;;
1837;SDS011;918;50.796;6.772;2023-04-30T15:03:39;1.47;;;1.20;;
1837;SDS011;918;50.796;6.772;2023-04-30T15:06:04;1.13;;;1.03;;
1837;SDS011;918;50.796;6.772;2023-04-30T15:08:31;1.60;;;1.13;;
1837;SDS011;918;50.796;6.772;2023-04-30T15:10:56;1.10;;;1.10;;
1837;SDS011;918;50.796;6.772;2023-04-30T15:13:21;1.03;;;0.90;;
1837;SDS011;918;50.796;6.772;2023-04-30T15:15:47;1.20;;;0.80;;
1837;SDS011;918;50.796;6.772;2023-04-30T15:18:13;0.73;;;0.73;;
1837;SDS011;918;50.796;6.772;2023-04-30T15:20:39;1.10;;;1.10;;
1837;SDS011;918;50.796;6.772;2023-04-30T15:23:05;0.70;;;0.70;;
1837;SDS011;918;50.796;6.772;2023-04-30T15:25:30;1.07;;;1.07;;